Nearby METAR Reports

 

EGPF - Glasgow Airport, United Kingdom
Distance from station: NW 19km
Updated: 20/02/2018 15:20
Mostly cloudy
Mostly cloudy
 Wind from NNW
Wind: NNW 9 km/h
Temperature: 10°C
Wind Chill: 9°C
Dew Point: 2°C
Humidity: 58%
Barometer: 1027 hPa
Clouds: Mostly cloudy
Visibility: 10 km
Cloud details: Partly cloudy 1189 m
Mostly cloudy 1402 m
2018/02/20 15:20 EGPF 201520Z AUTO 34005KT 300V010 9999 SCT039 BKN046 10/02 Q1027
EGPK - Prestwick(Civ/Na, United Kingdom
Distance from station: SW 34km
Updated: 20/02/2018 15:20
Few Clouds
Few Clouds
 Wind from NW
Wind: NW 22 km/h
Temperature: 9°C
Wind Chill: 6°C
Dew Point: 5°C
Humidity: 76%
Barometer: 1027 hPa
Clouds: Few Clouds
Visibility: 10 km
Cloud details: Few Clouds 1280 m
2018/02/20 15:20 EGPK 201520Z 32012KT 9999 FEW042 09/05 Q1027
EGPH - Edinburgh Airpor, United Kingdom
Distance from station: ENE 59km
Updated: 20/02/2018 15:20
Partly cloudy
Partly cloudy
 Wind from NNW
Wind: NNW 11 km/h
Temperature: 9°C
Wind Chill: 7°C
Dew Point: 1°C
Humidity: 58%
Barometer: 1026 hPa
Clouds: Partly cloudy
Visibility: 10 km
Cloud details: Partly cloudy 1311 m
2018/02/20 15:20 EGPH 201520Z 33006KT 270V010 9999 SCT043 09/01 Q1026